createdAt,value
2023-04-11T00:00:59.749Z,5.70
2023-04-11T00:03:29.020Z,6.80
2023-04-11T00:05:58.944Z,5.60
2023-04-11T00:08:27.147Z,6.05
2023-04-11T00:10:55.425Z,5.95
2023-04-11T00:13:24.392Z,5.90
2023-04-11T00:15:55.587Z,6.18
2023-04-11T00:18:25.583Z,5.43
2023-04-11T00:20:53.807Z,5.95
2023-04-11T00:23:23.502Z,5.88
2023-04-11T00:25:51.729Z,5.65
2023-04-11T00:28:20.031Z,5.78
2023-04-11T00:30:48.230Z,5.90
2023-04-11T00:33:16.704Z,5.53
2023-04-11T00:35:45.780Z,5.43
2023-04-11T00:38:13.953Z,5.75
2023-04-11T00:40:44.317Z,5.03
2023-04-11T00:43:12.551Z,5.40
2023-04-11T00:45:41.030Z,5.13
2023-04-11T00:48:09.292Z,5.10
2023-04-11T00:50:42.195Z,4.85
2023-04-11T00:53:12.002Z,5.78
2023-04-11T00:55:40.805Z,5.15
2023-04-11T00:58:10.613Z,5.28
2023-04-11T01:00:38.867Z,5.65
2023-04-11T01:03:08.479Z,5.10
2023-04-11T01:05:37.476Z,5.53
2023-04-11T01:08:06.307Z,4.72
2023-04-11T01:10:34.676Z,4.80
2023-04-11T01:13:03.568Z,4.55
2023-04-11T01:15:33.157Z,4.90
2023-04-11T01:18:02.120Z,4.95
2023-04-11T01:20:31.873Z,5.15
2023-04-11T01:23:02.443Z,5.05
2023-04-11T01:25:32.212Z,4.80
2023-04-11T01:28:00.718Z,4.68
2023-04-11T01:30:29.106Z,4.72
2023-04-11T01:32:57.454Z,4.38
2023-04-11T01:35:25.873Z,4.35
2023-04-11T01:37:54.129Z,4.72
2023-04-11T01:40:23.777Z,4.38
2023-04-11T01:42:53.937Z,4.07
2023-04-11T01:45:23.242Z,4.70
2023-04-11T01:47:54.630Z,4.00
2023-04-11T01:50:23.217Z,3.97
2023-04-11T01:52:52.081Z,4.40
2023-04-11T01:55:20.336Z,4.03
2023-04-11T01:57:48.643Z,4.50
2023-04-11T02:00:19.675Z,4.15
2023-04-11T02:05:16.415Z,3.67
2023-04-11T02:07:45.217Z,4.63
2023-04-11T02:10:13.513Z,3.80
2023-04-11T02:12:41.677Z,3.92
2023-04-11T02:15:10.372Z,4.10
2023-04-11T02:17:45.636Z,3.88
2023-04-11T02:20:14.751Z,3.92
2023-04-11T02:22:43.013Z,4.53
2023-04-11T02:25:11.447Z,3.83
2023-04-11T02:27:39.666Z,3.95
2023-04-11T02:30:08.958Z,3.53
2023-04-11T02:32:38.356Z,3.80
2023-04-11T02:35:08.852Z,3.95
2023-04-11T02:37:37.583Z,3.67
2023-04-11T02:40:06.638Z,3.63
2023-04-11T02:42:34.793Z,3.95
2023-04-11T02:45:03.823Z,3.35
2023-04-11T02:47:32.062Z,3.58
2023-04-11T02:50:00.330Z,4.38
2023-04-11T02:52:29.934Z,4.07
2023-04-11T02:54:58.286Z,3.70
2023-04-11T02:57:27.146Z,3.45
2023-04-11T02:59:55.268Z,3.38
2023-04-11T03:02:23.874Z,3.80
2023-04-11T03:04:52.412Z,3.50
2023-04-11T03:07:20.664Z,3.80
2023-04-11T03:09:50.542Z,3.33
2023-04-11T03:12:20.149Z,3.33
2023-04-11T03:14:48.314Z,3.28
2023-04-11T03:17:16.486Z,3.75
2023-04-11T03:19:44.664Z,3.17
2023-04-11T03:22:14.112Z,3.15
2023-04-11T03:24:42.841Z,3.47
2023-04-11T03:27:12.328Z,3.55
2023-04-11T03:29:40.757Z,3.65
2023-04-11T03:32:09.021Z,3.72
2023-04-11T03:34:37.168Z,3.88
2023-04-11T03:37:05.567Z,3.42
2023-04-11T03:39:33.893Z,3.10
2023-04-11T03:42:02.758Z,3.55
2023-04-11T03:44:32.410Z,3.03
2023-04-11T03:47:00.824Z,3.40
2023-04-11T03:49:29.007Z,3.55
2023-04-11T03:51:57.542Z,4.03
2023-04-11T03:54:25.730Z,4.00
2023-04-11T03:56:54.078Z,4.28
2023-04-11T03:59:22.256Z,4.43
2023-04-11T04:01:52.034Z,4.55
2023-04-11T04:04:20.529Z,4.15
2023-04-11T04:06:48.790Z,5.18
2023-04-11T04:09:17.305Z,4.10
2023-04-11T04:11:45.433Z,4.72
2023-04-11T04:14:13.651Z,4.85
2023-04-11T04:16:41.870Z,4.53
2023-04-11T04:19:11.447Z,5.30
2023-04-11T04:21:39.602Z,6.13
2023-04-11T04:24:08.079Z,5.07
2023-04-11T04:26:38.121Z,5.88
2023-04-11T04:29:06.323Z,5.53
2023-04-11T04:31:34.994Z,5.60
2023-04-11T04:34:08.651Z,5.53
2023-04-11T04:36:46.469Z,5.70
2023-04-11T04:39:18.053Z,6.55
2023-04-11T04:41:48.701Z,6.60
2023-04-11T04:44:17.425Z,6.57
2023-04-11T04:46:45.848Z,5.97
2023-04-11T04:49:14.012Z,6.05
2023-04-11T04:51:43.612Z,6.10
2023-04-11T04:54:11.918Z,5.82
2023-04-11T04:56:41.563Z,5.88
2023-04-11T04:59:14.634Z,6.60
2023-04-11T05:01:43.192Z,6.55
2023-04-11T05:04:11.761Z,5.45
2023-04-11T05:06:40.088Z,6.18
2023-04-11T05:09:09.731Z,6.20
2023-04-11T05:11:38.060Z,6.55
2023-04-11T05:14:06.266Z,6.60
2023-04-11T05:16:34.488Z,5.93
2023-04-11T05:19:02.645Z,7.07
2023-04-11T05:21:30.890Z,6.60
2023-04-11T05:23:59.166Z,5.95
2023-04-11T05:26:28.782Z,6.00
2023-04-11T05:28:57.103Z,6.85
2023-04-11T05:31:25.990Z,5.95
2023-04-11T05:33:54.623Z,6.25
2023-04-11T05:36:23.015Z,6.60
2023-04-11T05:38:51.301Z,6.30
2023-04-11T05:41:19.591Z,6.35
2023-04-11T05:43:49.290Z,6.43
2023-04-11T05:46:18.327Z,6.30
2023-04-11T05:48:46.552Z,6.40
2023-04-11T05:51:14.823Z,6.30
2023-04-11T05:53:43.974Z,6.13
2023-04-11T05:56:12.913Z,6.35
2023-04-11T05:58:43.355Z,5.93
2023-04-11T06:01:18.661Z,6.20
2023-04-11T06:03:47.518Z,6.20
2023-04-11T06:06:15.999Z,5.78
2023-04-11T06:08:44.303Z,5.93
2023-04-11T06:11:12.445Z,5.68
2023-04-11T06:13:40.750Z,6.15
2023-04-11T06:16:09.806Z,5.18
2023-04-11T06:18:39.519Z,5.97
2023-04-11T06:21:07.792Z,6.28
2023-04-11T06:23:36.026Z,5.35
2023-04-11T06:26:04.408Z,5.72
2023-04-11T06:28:32.674Z,6.05
2023-04-11T06:31:00.860Z,6.40
2023-04-11T06:33:29.151Z,6.15
2023-04-11T06:35:58.698Z,6.20
2023-04-11T06:38:26.982Z,5.50
2023-04-11T06:40:58.399Z,6.25
2023-04-11T06:43:26.613Z,5.00
2023-04-11T06:45:54.941Z,4.45
2023-04-11T06:48:24.398Z,4.50
2023-04-11T06:50:52.757Z,4.78
2023-04-11T06:53:22.449Z,4.50
2023-04-11T06:55:50.875Z,4.97
2023-04-11T06:58:19.194Z,4.90
2023-04-11T07:00:47.352Z,4.00
2023-04-11T07:03:15.713Z,4.38
2023-04-11T07:05:44.189Z,3.95
2023-04-11T07:08:12.398Z,3.97
2023-04-11T07:10:42.075Z,4.50
2023-04-11T07:13:10.297Z,4.25
2023-04-11T07:15:38.461Z,3.75
2023-04-11T07:18:06.807Z,4.00
2023-04-11T07:20:36.173Z,4.75
2023-04-11T07:23:04.537Z,4.63
2023-04-11T07:25:33.659Z,3.80
2023-04-11T07:28:07.510Z,4.35
2023-04-11T07:30:36.719Z,3.95
2023-04-11T07:33:05.351Z,4.10
2023-04-11T07:35:34.787Z,4.28
2023-04-11T07:38:03.575Z,4.47
2023-04-11T07:40:32.077Z,4.28
2023-04-11T07:43:01.829Z,4.45
2023-04-11T07:45:31.687Z,4.00
2023-04-11T07:48:00.029Z,3.92
2023-04-11T07:50:28.293Z,4.60
2023-04-11T07:52:57.696Z,5.00
2023-04-11T07:55:25.849Z,4.50
2023-04-11T07:57:54.027Z,4.47
2023-04-11T08:00:25.057Z,4.35
2023-04-11T08:05:23.143Z,4.82
2023-04-11T08:07:51.594Z,5.38
2023-04-11T08:10:19.878Z,4.85
2023-04-11T08:12:48.252Z,5.80
2023-04-11T08:15:16.797Z,5.45
2023-04-11T08:17:45.579Z,4.63
2023-04-11T08:20:15.297Z,5.30
2023-04-11T08:22:44.881Z,5.10
2023-04-11T08:25:14.010Z,4.65
2023-04-11T08:27:42.626Z,5.18
2023-04-11T08:30:11.180Z,6.72
2023-04-11T08:32:39.830Z,4.80
2023-04-11T08:35:08.805Z,5.70
2023-04-11T08:37:38.310Z,6.00
2023-04-11T08:40:08.454Z,6.97
2023-04-11T08:42:36.907Z,5.10
2023-04-11T08:45:08.711Z,6.20
2023-04-11T08:47:37.764Z,6.15
2023-04-11T08:50:07.124Z,5.85
2023-04-11T08:52:38.925Z,4.97
2023-04-11T08:55:07.663Z,4.93
2023-04-11T08:57:38.319Z,4.80
2023-04-11T09:00:13.549Z,4.28
2023-04-11T09:02:58.192Z,4.82
2023-04-11T09:05:27.983Z,5.00
2023-04-11T09:07:59.106Z,5.53
2023-04-11T09:12:56.320Z,5.72
2023-04-11T09:15:25.924Z,5.72
2023-04-11T09:17:54.546Z,7.20
2023-04-11T09:20:26.227Z,5.88
2023-04-11T09:22:55.572Z,4.60
2023-04-11T09:25:25.581Z,5.13
2023-04-11T09:28:09.896Z,4.72
2023-04-11T09:30:38.233Z,4.78
2023-04-11T09:33:22.628Z,4.93
2023-04-11T09:35:53.072Z,4.25
2023-04-11T09:38:32.169Z,4.60
2023-04-11T09:41:02.526Z,4.10
2023-04-11T09:43:50.551Z,3.80
2023-04-11T09:46:21.080Z,4.50
2023-04-11T09:48:50.035Z,4.13
2023-04-11T09:51:34.155Z,3.95
2023-04-11T09:54:04.885Z,4.10
2023-04-11T09:56:35.686Z,4.15
2023-04-11T09:59:05.594Z,3.70
2023-04-11T10:01:34.234Z,3.92
2023-04-11T10:04:04.496Z,3.60
2023-04-11T10:06:38.571Z,3.50
2023-04-11T10:09:09.666Z,4.32
2023-04-11T10:11:43.062Z,3.67
2023-04-11T10:14:31.467Z,4.03
2023-04-11T10:17:19.821Z,4.10
2023-04-11T10:19:51.638Z,3.43
2023-04-11T10:22:56.121Z,3.63
2023-04-11T10:25:25.339Z,3.50
2023-04-11T10:28:00.633Z,3.70
2023-04-11T10:31:00.520Z,3.42
2023-04-11T10:33:28.966Z,4.10
2023-04-11T10:35:58.923Z,3.45
2023-04-11T10:38:47.351Z,3.35
2023-04-11T10:41:17.509Z,3.17
2023-04-11T10:43:47.588Z,3.28
2023-04-11T10:46:20.001Z,3.33
2023-04-11T10:49:08.771Z,3.72
2023-04-11T10:51:37.063Z,3.97
2023-04-11T10:54:05.771Z,3.50
2023-04-11T10:56:57.949Z,3.25
2023-04-11T11:00:13.079Z,3.60
2023-04-11T11:02:43.145Z,3.72
2023-04-11T11:05:22.549Z,2.75
2023-04-11T11:07:52.731Z,3.30
2023-04-11T11:10:40.480Z,3.00
2023-04-11T11:13:08.939Z,3.05
2023-04-11T11:15:38.996Z,3.05
2023-04-11T11:18:10.152Z,3.67
2023-04-11T11:20:38.831Z,3.25
2023-04-11T11:23:09.029Z,3.20
2023-04-11T11:25:37.564Z,2.87
2023-04-11T11:28:07.959Z,3.03
2023-04-11T11:30:38.429Z,3.47
2023-04-11T11:33:17.878Z,3.10
2023-04-11T11:35:52.065Z,3.30
2023-04-11T11:38:21.160Z,3.50
2023-04-11T11:40:50.007Z,3.60
2023-04-11T11:43:18.360Z,3.30
2023-04-11T11:45:48.615Z,3.03
2023-04-11T11:48:24.148Z,3.17
2023-04-11T11:50:57.943Z,2.80
2023-04-11T11:53:27.053Z,4.40
2023-04-11T11:55:56.899Z,3.05
2023-04-11T11:58:26.277Z,3.17
2023-04-11T12:00:56.039Z,3.38
2023-04-11T12:03:25.700Z,3.10
2023-04-11T12:05:58.259Z,3.10
2023-04-11T12:08:27.287Z,3.03
2023-04-11T12:10:55.562Z,3.10
2023-04-11T12:13:27.210Z,3.30
2023-04-11T12:15:59.124Z,3.30
2023-04-11T12:18:29.497Z,2.90
2023-04-11T12:20:58.727Z,3.20
2023-04-11T12:23:26.947Z,3.30
2023-04-11T12:25:55.263Z,3.05
2023-04-11T12:28:23.477Z,3.58
2023-04-11T12:30:51.913Z,2.97
2023-04-11T12:33:22.180Z,3.28
2023-04-11T12:35:50.647Z,2.63
2023-04-11T12:38:18.910Z,2.65
2023-04-11T12:40:47.467Z,2.83
2023-04-11T12:43:15.829Z,2.88
2023-04-11T12:45:44.186Z,3.45
2023-04-11T12:48:12.681Z,3.00
2023-04-11T12:50:42.374Z,2.97
2023-04-11T12:53:10.794Z,2.90
2023-04-11T12:55:39.103Z,2.90
2023-04-11T12:58:08.270Z,3.20
2023-04-11T13:00:36.480Z,2.88
2023-04-11T13:03:06.151Z,2.92
2023-04-11T13:05:34.574Z,2.80
2023-04-11T13:08:04.159Z,3.25
2023-04-11T13:10:32.374Z,2.63
2023-04-11T13:13:08.486Z,2.67
2023-04-11T13:15:46.332Z,3.35
2023-04-11T13:18:14.563Z,2.72
2023-04-11T13:20:42.785Z,3.88
2023-04-11T13:23:13.695Z,2.60
2023-04-11T13:25:43.127Z,2.50
2023-04-11T13:28:11.389Z,2.42
2023-04-11T13:30:41.088Z,2.55
2023-04-11T13:33:09.409Z,2.42
2023-04-11T13:35:37.668Z,2.45
2023-04-11T13:38:06.270Z,2.40
2023-04-11T13:40:36.249Z,2.70
2023-04-11T13:43:04.455Z,2.55
2023-04-11T13:45:32.734Z,2.72
2023-04-11T13:48:01.126Z,3.70
2023-04-11T13:50:29.388Z,2.40
2023-04-11T13:52:57.911Z,2.45
2023-04-11T13:55:26.135Z,2.60
2023-04-11T13:57:55.808Z,2.58
2023-04-11T14:00:24.271Z,2.70
2023-04-11T14:02:52.854Z,2.58
2023-04-11T14:05:21.184Z,2.72
2023-04-11T14:07:49.633Z,2.67
2023-04-11T14:10:17.955Z,2.63
2023-04-11T14:12:46.209Z,3.00
2023-04-11T14:15:15.836Z,2.67
2023-04-11T14:17:46.819Z,2.72
2023-04-11T14:22:44.166Z,2.70
2023-04-11T14:25:13.374Z,2.40
2023-04-11T14:27:42.382Z,2.47
2023-04-11T14:30:11.807Z,2.17
2023-04-11T14:32:41.791Z,2.78
2023-04-11T14:35:10.458Z,2.63
2023-04-11T14:37:38.743Z,2.65
2023-04-11T14:40:10.994Z,2.88
2023-04-11T14:42:39.631Z,3.28
2023-04-11T14:45:09.093Z,2.90
2023-04-11T14:47:37.382Z,2.30
2023-04-11T14:50:08.378Z,2.05
2023-04-11T14:55:04.728Z,2.17
2023-04-11T14:57:54.788Z,2.70
2023-04-11T15:00:24.967Z,2.35
2023-04-11T15:02:55.089Z,2.20
2023-04-11T15:05:25.088Z,3.05
2023-04-11T15:07:54.303Z,2.58
2023-04-11T15:10:24.451Z,3.20
2023-04-11T15:12:52.636Z,2.23
2023-04-11T15:15:20.810Z,2.05
2023-04-11T15:17:50.586Z,2.60
2023-04-11T15:20:20.141Z,2.28
2023-04-11T15:22:49.761Z,2.10
2023-04-11T15:25:18.023Z,2.38
2023-04-11T15:27:46.763Z,2.13
2023-04-11T15:30:15.360Z,2.00
2023-04-11T15:32:44.632Z,2.50
2023-04-11T15:35:13.006Z,1.95
2023-04-11T15:37:41.316Z,2.55
2023-04-11T15:40:12.586Z,2.10
2023-04-11T15:42:40.824Z,2.67
2023-04-11T15:45:09.969Z,2.10
2023-04-11T15:47:38.304Z,2.22
2023-04-11T15:50:07.397Z,2.30
2023-04-11T15:52:35.696Z,2.45
2023-04-11T15:55:03.857Z,2.60
2023-04-11T15:57:33.744Z,2.20
2023-04-11T16:00:02.284Z,2.30
2023-04-11T16:02:30.860Z,2.60
2023-04-11T16:05:01.289Z,1.92
2023-04-11T16:07:29.724Z,1.98
2023-04-11T16:09:57.937Z,2.03
2023-04-11T16:12:26.229Z,1.80
2023-04-11T16:14:55.812Z,2.40
2023-04-11T16:17:24.047Z,2.83
2023-04-11T16:19:53.466Z,2.05
2023-04-11T16:22:21.796Z,2.45
2023-04-11T16:24:50.043Z,2.15
2023-04-11T16:27:18.881Z,2.08
2023-04-11T16:29:47.126Z,1.90
2023-04-11T16:32:16.741Z,2.60
2023-04-11T16:34:44.974Z,2.30
2023-04-11T16:37:13.253Z,2.10
2023-04-11T16:39:41.410Z,2.05
2023-04-11T16:42:09.548Z,2.30
2023-04-11T16:44:37.856Z,2.35
2023-04-11T16:47:06.131Z,2.05
2023-04-11T16:49:36.163Z,2.00
2023-04-11T16:52:04.799Z,1.65
2023-04-11T16:54:32.951Z,2.13
2023-04-11T16:57:01.530Z,1.75
2023-04-11T16:59:30.415Z,2.28
2023-04-11T17:01:58.791Z,1.90
2023-04-11T17:04:27.244Z,1.65
2023-04-11T17:06:57.491Z,2.10
2023-04-11T17:09:25.706Z,1.80
2023-04-11T17:11:54.034Z,2.10
2023-04-11T17:14:22.248Z,2.00
2023-04-11T17:16:50.904Z,1.90
2023-04-11T17:19:19.198Z,1.90
2023-04-11T17:21:47.438Z,1.75
2023-04-11T17:24:17.066Z,2.00
2023-04-11T17:26:45.452Z,1.70
2023-04-11T17:29:13.925Z,2.13
2023-04-11T17:31:44.617Z,2.00
2023-04-11T17:34:17.868Z,2.08
2023-04-11T17:36:47.095Z,1.80
2023-04-11T17:39:18.179Z,2.00
2023-04-11T17:41:46.744Z,1.80
2023-04-11T17:44:15.335Z,2.22
2023-04-11T17:46:43.748Z,1.80
2023-04-11T17:49:12.045Z,1.60
2023-04-11T17:51:48.896Z,1.95
2023-04-11T17:54:22.090Z,1.88
2023-04-11T17:56:50.765Z,1.60
2023-04-11T17:59:19.321Z,1.75
2023-04-11T18:01:47.576Z,1.92
2023-04-11T18:04:16.004Z,1.90
2023-04-11T18:06:46.298Z,1.80
2023-04-11T18:09:15.648Z,1.77
2023-04-11T18:11:45.231Z,1.60
2023-04-11T18:14:13.453Z,1.80
2023-04-11T18:16:41.668Z,1.83
2023-04-11T18:19:09.900Z,1.70
2023-04-11T18:21:39.785Z,1.95
2023-04-11T18:24:08.400Z,1.63
2023-04-11T18:26:36.591Z,1.67
2023-04-11T18:29:06.851Z,1.77
2023-04-11T18:31:35.300Z,1.60
2023-04-11T18:34:06.106Z,1.70
2023-04-11T18:36:35.457Z,1.42
2023-04-11T18:39:04.007Z,1.80
2023-04-11T18:41:32.481Z,1.58
2023-04-11T18:44:02.250Z,1.90
2023-04-11T18:46:34.185Z,1.90
2023-04-11T18:49:04.877Z,1.58
2023-04-11T18:51:35.535Z,2.60
2023-04-11T18:54:03.741Z,1.45
2023-04-11T18:56:35.110Z,1.60
2023-04-11T18:59:09.324Z,1.70
2023-04-11T19:01:39.887Z,1.50
2023-04-11T19:04:09.755Z,1.58
2023-04-11T19:06:37.988Z,1.75
2023-04-11T19:09:06.202Z,1.95
2023-04-11T19:11:35.068Z,1.90
2023-04-11T19:14:03.558Z,2.00
2023-04-11T19:16:32.246Z,1.70
2023-04-11T19:19:02.109Z,1.50
2023-04-11T19:21:30.441Z,1.50
2023-04-11T19:23:59.375Z,1.60
2023-04-11T19:26:27.726Z,1.38
2023-04-11T19:28:56.336Z,1.50
2023-04-11T19:31:26.436Z,1.65
2023-04-11T19:33:55.070Z,1.63
2023-04-11T19:36:24.976Z,1.67
2023-04-11T19:38:53.256Z,1.40
2023-04-11T19:41:21.486Z,1.80
2023-04-11T19:43:49.810Z,1.80
2023-04-11T19:46:18.528Z,1.55
2023-04-11T19:48:47.171Z,1.63
2023-04-11T19:51:16.772Z,1.70
2023-04-11T19:53:46.545Z,1.60
2023-04-11T19:56:16.654Z,1.40
2023-04-11T19:58:44.851Z,1.90
2023-04-11T20:01:13.156Z,1.65
2023-04-11T20:03:41.709Z,1.58
2023-04-11T20:06:12.382Z,1.85
2023-04-11T20:08:41.037Z,1.60
2023-04-11T20:11:14.929Z,1.40
2023-04-11T20:13:43.196Z,1.52
2023-04-11T20:16:11.751Z,1.65
2023-04-11T20:18:39.976Z,1.80
2023-04-11T20:21:09.409Z,1.30
2023-04-11T20:23:37.640Z,1.70
2023-04-11T20:26:06.122Z,1.55
2023-04-11T20:28:36.494Z,1.95
2023-04-11T20:31:05.178Z,1.60
2023-04-11T20:33:33.454Z,1.60
2023-04-11T20:36:03.362Z,1.50
2023-04-11T20:38:32.072Z,1.52
2023-04-11T20:41:03.695Z,1.70
2023-04-11T20:43:32.912Z,1.63
2023-04-11T20:46:04.052Z,1.45
2023-04-11T20:48:32.223Z,1.70
2023-04-11T20:51:01.897Z,1.67
2023-04-11T20:53:30.318Z,1.75
2023-04-11T20:55:58.610Z,1.80
2023-04-11T20:58:28.496Z,1.58
2023-04-11T21:00:56.709Z,1.60
2023-04-11T21:03:31.071Z,1.73
2023-04-11T21:05:59.510Z,1.80
2023-04-11T21:08:27.778Z,1.98
2023-04-11T21:10:56.114Z,1.83
2023-04-11T21:13:24.347Z,1.50
2023-04-11T21:15:52.640Z,1.98
2023-04-11T21:18:20.746Z,1.73
2023-04-11T21:20:50.631Z,1.70
2023-04-11T21:23:18.896Z,1.98
2023-04-11T21:25:47.150Z,2.00
2023-04-11T21:28:15.700Z,1.88
2023-04-11T21:30:43.906Z,1.75
2023-04-11T21:33:12.131Z,1.42
2023-04-11T21:35:40.289Z,1.85
2023-04-11T21:38:12.452Z,1.92
2023-04-11T21:40:40.624Z,1.80
2023-04-11T21:43:08.818Z,2.00
2023-04-11T21:45:37.140Z,1.80
2023-04-11T21:48:05.645Z,1.70
2023-04-11T21:50:34.006Z,1.90
2023-04-11T21:53:02.255Z,2.00
2023-04-11T21:55:31.912Z,1.90
2023-04-11T21:58:00.116Z,1.52
2023-04-11T22:00:28.428Z,1.42
2023-04-11T22:02:56.795Z,1.80
2023-04-11T22:05:26.288Z,1.85
2023-04-11T22:08:11.350Z,1.58
2023-04-11T22:10:47.776Z,1.83
2023-04-11T22:13:18.066Z,2.00
2023-04-11T22:15:48.950Z,1.75
2023-04-11T22:20:46.203Z,1.92
2023-04-11T22:23:17.847Z,1.90
2023-04-11T22:25:49.593Z,1.77
2023-04-11T22:28:18.317Z,1.70
2023-04-11T22:30:48.519Z,1.90
2023-04-11T22:33:17.320Z,2.10
2023-04-11T22:35:47.674Z,1.88
2023-04-11T22:38:16.845Z,1.70
2023-04-11T22:40:46.500Z,1.98
2023-04-11T22:43:14.638Z,1.75
2023-04-11T22:45:43.037Z,2.00
2023-04-11T22:48:13.897Z,1.80
2023-04-11T22:50:43.760Z,1.88
2023-04-11T22:53:13.917Z,1.98
2023-04-11T22:55:42.409Z,1.90
2023-04-11T22:58:12.008Z,1.77
2023-04-11T23:00:40.267Z,1.85
2023-04-11T23:03:08.613Z,2.10
2023-04-11T23:05:39.503Z,2.25
2023-04-11T23:08:07.824Z,2.05
2023-04-11T23:10:36.156Z,1.80
2023-04-11T23:13:04.421Z,2.10
2023-04-11T23:15:34.301Z,2.15
2023-04-11T23:18:02.526Z,1.90
2023-04-11T23:20:31.053Z,1.70
2023-04-11T23:22:59.286Z,1.80
2023-04-11T23:25:28.292Z,2.00
2023-04-11T23:27:56.576Z,1.83
2023-04-11T23:30:26.147Z,2.13
2023-04-11T23:32:55.737Z,2.20
2023-04-11T23:35:24.150Z,1.80
2023-04-11T23:37:52.548Z,2.05
2023-04-11T23:40:21.444Z,2.10
2023-04-11T23:42:49.714Z,1.90
2023-04-11T23:45:22.479Z,1.80
2023-04-11T23:47:51.163Z,2.17
2023-04-11T23:50:20.716Z,1.88
2023-04-11T23:52:49.304Z,2.08
2023-04-11T23:55:17.653Z,1.67
2023-04-11T23:57:45.779Z,1.83
